sensor_id;sensor_type;location;lat;lon;timestamp;noise_LAeq;noise_LA_min;noise_LA_max;noise_LA01;noise_LA95
65079;Laerm;52655;52.218;5.964;2023-08-12T00:01:17;34.0;29.9;46.1;;
65079;Laerm;52655;52.218;5.964;2023-08-12T00:04:18;36.7;30.0;54.1;;
65079;Laerm;52655;52.218;5.964;2023-08-12T00:07:19;37.1;29.3;54.1;;
65079;Laerm;52655;52.218;5.964;2023-08-12T00:10:20;36.6;29.1;52.2;;
65079;Laerm;52655;52.218;5.964;2023-08-12T00:13:21;31.2;29.3;36.2;;
65079;Laerm;52655;52.218;5.964;2023-08-12T00:16:22;30.2;28.8;38.7;;
65079;Laerm;52655;52.218;5.964;2023-08-12T00:19:23;31.1;28.4;42.8;;
65079;Laerm;52655;52.218;5.964;2023-08-12T00:22:24;34.7;28.9;52.2;;
65079;Laerm;52655;52.218;5.964;2023-08-12T00:25:25;31.2;28.7;36.6;;
65079;Laerm;52655;52.218;5.964;2023-08-12T00:28:26;40.2;29.2;59.6;;
65079;Laerm;52655;52.218;5.964;2023-08-12T00:31:28;34.1;29.0;51.4;;
65079;Laerm;52655;52.218;5.964;2023-08-12T00:34:29;29.8;28.6;33.0;;
65079;Laerm;52655;52.218;5.964;2023-08-12T00:37:30;32.9;28.8;49.2;;
65079;Laerm;52655;52.218;5.964;2023-08-12T00:40:31;29.3;28.3;31.1;;
65079;Laerm;52655;52.218;5.964;2023-08-12T00:43:32;29.1;28.1;34.6;;
65079;Laerm;52655;52.218;5.964;2023-08-12T00:46:33;34.5;28.5;52.6;;
65079;Laerm;52655;52.218;5.964;2023-08-12T00:49:34;29.7;28.4;35.6;;
65079;Laerm;52655;52.218;5.964;2023-08-12T00:52:35;34.7;28.5;52.4;;
65079;Laerm;52655;52.218;5.964;2023-08-12T00:55:36;37.1;29.1;55.4;;
65079;Laerm;52655;52.218;5.964;2023-08-12T00:58:37;32.8;30.7;36.5;;
65079;Laerm;52655;52.218;5.964;2023-08-12T01:01:39;35.1;30.2;51.6;;
65079;Laerm;52655;52.218;5.964;2023-08-12T01:04:39;36.0;30.3;53.4;;
65079;Laerm;52655;52.218;5.964;2023-08-12T01:07:40;34.5;32.4;37.2;;
65079;Laerm;52655;52.218;5.964;2023-08-12T01:10:44;35.8;32.6;49.2;;
65079;Laerm;52655;52.218;5.964;2023-08-12T01:13:46;38.7;31.8;55.0;;
65079;Laerm;52655;52.218;5.964;2023-08-12T01:16:44;33.1;31.0;38.8;;
65079;Laerm;52655;52.218;5.964;2023-08-12T01:19:44;32.6;30.0;41.1;;
65079;Laerm;52655;52.218;5.964;2023-08-12T01:22:45;32.8;30.4;34.9;;
65079;Laerm;52655;52.218;5.964;2023-08-12T01:25:46;38.4;31.3;55.7;;
65079;Laerm;52655;52.218;5.964;2023-08-12T01:28:47;32.3;30.3;35.5;;
65079;Laerm;52655;52.218;5.964;2023-08-12T01:31:50;32.8;30.4;39.8;;
65079;Laerm;52655;52.218;5.964;2023-08-12T01:34:58;32.8;29.9;40.2;;
65079;Laerm;52655;52.218;5.964;2023-08-12T01:37:51;38.0;28.9;53.7;;
65079;Laerm;52655;52.218;5.964;2023-08-12T01:40:51;36.3;28.5;51.0;;
65079;Laerm;52655;52.218;5.964;2023-08-12T01:46:54;37.5;28.7;57.8;;
65079;Laerm;52655;52.218;5.964;2023-08-12T01:49:55;30.0;28.8;34.0;;
65079;Laerm;52655;52.218;5.964;2023-08-12T01:52:56;30.4;28.6;38.1;;
65079;Laerm;52655;52.218;5.964;2023-08-12T01:55:57;30.0;28.8;34.7;;
65079;Laerm;52655;52.218;5.964;2023-08-12T01:58:58;32.9;28.4;49.4;;
65079;Laerm;52655;52.218;5.964;2023-08-12T02:01:59;30.0;28.8;34.1;;
65079;Laerm;52655;52.218;5.964;2023-08-12T02:05:00;30.2;28.8;34.7;;
65079;Laerm;52655;52.218;5.964;2023-08-12T02:08:01;31.9;28.8;42.4;;
65079;Laerm;52655;52.218;5.964;2023-08-12T02:11:02;34.7;28.9;52.0;;
65079;Laerm;52655;52.218;5.964;2023-08-12T02:14:03;29.8;28.8;38.6;;
65079;Laerm;52655;52.218;5.964;2023-08-12T02:17:04;32.5;28.2;49.6;;
65079;Laerm;52655;52.218;5.964;2023-08-12T02:20:05;36.4;28.2;56.3;;
65079;Laerm;52655;52.218;5.964;2023-08-12T02:23:06;29.3;28.3;36.9;;
65079;Laerm;52655;52.218;5.964;2023-08-12T02:26:07;30.5;28.5;40.2;;
65079;Laerm;52655;52.218;5.964;2023-08-12T02:29:08;30.0;28.1;36.5;;
65079;Laerm;52655;52.218;5.964;2023-08-12T02:32:09;31.8;28.4;46.5;;
65079;Laerm;52655;52.218;5.964;2023-08-12T02:35:10;29.5;28.1;32.6;;
65079;Laerm;52655;52.218;5.964;2023-08-12T02:38:11;34.0;28.3;50.3;;
65079;Laerm;52655;52.218;5.964;2023-08-12T02:41:12;29.5;28.4;37.2;;
65079;Laerm;52655;52.218;5.964;2023-08-12T02:44:13;36.8;27.9;52.6;;
65079;Laerm;52655;52.218;5.964;2023-08-12T02:47:14;29.6;28.2;37.8;;
65079;Laerm;52655;52.218;5.964;2023-08-12T02:50:16;29.5;28.1;32.3;;
65079;Laerm;52655;52.218;5.964;2023-08-12T02:53:17;29.8;28.4;34.0;;
65079;Laerm;52655;52.218;5.964;2023-08-12T02:56:18;29.0;28.0;35.2;;
65079;Laerm;52655;52.218;5.964;2023-08-12T02:59:19;35.2;28.0;50.4;;
65079;Laerm;52655;52.218;5.964;2023-08-12T03:02:20;29.9;28.3;36.1;;
65079;Laerm;52655;52.218;5.964;2023-08-12T03:05:21;29.2;28.1;31.6;;
65079;Laerm;52655;52.218;5.964;2023-08-12T03:08:22;29.5;28.1;35.5;;
65079;Laerm;52655;52.218;5.964;2023-08-12T03:11:23;29.5;28.5;37.8;;
65079;Laerm;52655;52.218;5.964;2023-08-12T03:14:24;29.2;28.0;31.2;;
65079;Laerm;52655;52.218;5.964;2023-08-12T03:17:25;37.8;28.4;56.1;;
65079;Laerm;52655;52.218;5.964;2023-08-12T03:20:26;30.3;28.4;42.4;;
65079;Laerm;52655;52.218;5.964;2023-08-12T03:23:27;29.5;28.6;30.9;;
65079;Laerm;52655;52.218;5.964;2023-08-12T03:26:28;30.3;28.7;35.4;;
65079;Laerm;52655;52.218;5.964;2023-08-12T03:29:29;31.1;28.8;39.3;;
65079;Laerm;52655;52.218;5.964;2023-08-12T03:32:30;29.8;28.4;35.5;;
65079;Laerm;52655;52.218;5.964;2023-08-12T03:35:31;31.1;28.8;38.0;;
65079;Laerm;52655;52.218;5.964;2023-08-12T03:38:32;31.6;28.9;39.3;;
65079;Laerm;52655;52.218;5.964;2023-08-12T03:41:33;34.9;28.7;51.8;;
65079;Laerm;52655;52.218;5.964;2023-08-12T03:44:34;31.4;28.8;42.2;;
65079;Laerm;52655;52.218;5.964;2023-08-12T03:47:35;39.7;29.2;56.5;;
65079;Laerm;52655;52.218;5.964;2023-08-12T03:50:37;34.7;29.4;48.3;;
65079;Laerm;52655;52.218;5.964;2023-08-12T03:53:38;30.4;28.8;50.2;;
65079;Laerm;52655;52.218;5.964;2023-08-12T03:56:39;36.2;29.0;52.9;;
65079;Laerm;52655;52.218;5.964;2023-08-12T03:59:40;33.2;29.2;50.2;;
65079;Laerm;52655;52.218;5.964;2023-08-12T04:02:41;34.9;29.1;52.8;;
65079;Laerm;52655;52.218;5.964;2023-08-12T04:05:49;30.5;28.9;37.8;;
65079;Laerm;52655;52.218;5.964;2023-08-12T04:08:43;43.7;29.2;60.5;;
65079;Laerm;52655;52.218;5.964;2023-08-12T04:11:44;31.1;28.8;43.1;;
65079;Laerm;52655;52.218;5.964;2023-08-12T04:14:45;35.1;29.4;48.6;;
65079;Laerm;52655;52.218;5.964;2023-08-12T04:17:46;34.5;29.0;51.6;;
65079;Laerm;52655;52.218;5.964;2023-08-12T04:20:48;31.9;29.2;39.7;;
65079;Laerm;52655;52.218;5.964;2023-08-12T04:23:48;36.6;29.6;54.0;;
65079;Laerm;52655;52.218;5.964;2023-08-12T04:26:49;41.6;30.0;57.0;;
65079;Laerm;52655;52.218;5.964;2023-08-12T04:29:50;40.2;29.7;61.0;;
65079;Laerm;52655;52.218;5.964;2023-08-12T04:32:51;35.5;29.6;51.3;;
65079;Laerm;52655;52.218;5.964;2023-08-12T04:35:52;34.6;28.8;41.3;;
65079;Laerm;52655;52.218;5.964;2023-08-12T04:38:53;37.3;29.5;54.4;;
65079;Laerm;52655;52.218;5.964;2023-08-12T04:41:54;33.9;29.1;55.0;;
65079;Laerm;52655;52.218;5.964;2023-08-12T04:46:51;31.2;29.1;38.3;;
65079;Laerm;52655;52.218;5.964;2023-08-12T04:49:52;39.3;29.7;53.0;;
65079;Laerm;52655;52.218;5.964;2023-08-12T04:52:53;34.5;29.4;50.4;;
65079;Laerm;52655;52.218;5.964;2023-08-12T04:55:54;39.3;30.0;51.3;;
65079;Laerm;52655;52.218;5.964;2023-08-12T04:58:55;36.5;30.0;51.2;;
65079;Laerm;52655;52.218;5.964;2023-08-12T05:01:56;37.3;29.2;51.6;;
65079;Laerm;52655;52.218;5.964;2023-08-12T05:04:57;35.6;30.2;50.4;;
65079;Laerm;52655;52.218;5.964;2023-08-12T05:07:58;31.6;29.0;41.1;;
65079;Laerm;52655;52.218;5.964;2023-08-12T05:10:59;34.2;29.0;49.0;;
65079;Laerm;52655;52.218;5.964;2023-08-12T05:14:00;32.2;29.2;44.8;;
65079;Laerm;52655;52.218;5.964;2023-08-12T05:17:01;34.3;29.8;52.0;;
65079;Laerm;52655;52.218;5.964;2023-08-12T05:20:03;38.5;29.9;52.9;;
65079;Laerm;52655;52.218;5.964;2023-08-12T05:23:03;38.4;30.0;54.1;;
65079;Laerm;52655;52.218;5.964;2023-08-12T05:26:04;34.1;30.2;41.8;;
65079;Laerm;52655;52.218;5.964;2023-08-12T05:29:05;38.2;31.6;53.9;;
65079;Laerm;52655;52.218;5.964;2023-08-12T05:32:06;38.0;31.0;55.8;;
65079;Laerm;52655;52.218;5.964;2023-08-12T05:35:08;36.5;30.4;51.2;;
65079;Laerm;52655;52.218;5.964;2023-08-12T05:38:09;37.5;29.9;52.3;;
65079;Laerm;52655;52.218;5.964;2023-08-12T05:41:10;38.2;31.3;51.5;;
65079;Laerm;52655;52.218;5.964;2023-08-12T05:44:11;48.2;30.6;65.7;;
65079;Laerm;52655;52.218;5.964;2023-08-12T05:47:12;40.7;30.4;56.1;;
65079;Laerm;52655;52.218;5.964;2023-08-12T05:50:13;35.6;30.6;48.7;;
65079;Laerm;52655;52.218;5.964;2023-08-12T05:53:14;40.3;30.2;53.3;;
65079;Laerm;52655;52.218;5.964;2023-08-12T05:56:15;35.5;31.2;51.2;;
65079;Laerm;52655;52.218;5.964;2023-08-12T05:59:16;40.8;32.3;53.0;;
65079;Laerm;52655;52.218;5.964;2023-08-12T06:02:17;47.4;42.2;54.8;;
65079;Laerm;52655;52.218;5.964;2023-08-12T06:05:18;43.1;39.8;51.5;;
65079;Laerm;52655;52.218;5.964;2023-08-12T06:08:19;45.0;41.4;52.3;;
65079;Laerm;52655;52.218;5.964;2023-08-12T06:11:20;44.1;40.0;55.8;;
65079;Laerm;52655;52.218;5.964;2023-08-12T06:14:21;43.2;37.9;53.4;;
65079;Laerm;52655;52.218;5.964;2023-08-12T06:17:22;40.4;36.2;53.6;;
65079;Laerm;52655;52.218;5.964;2023-08-12T06:20:23;40.4;34.5;53.8;;
65079;Laerm;52655;52.218;5.964;2023-08-12T06:23:24;44.8;35.1;56.0;;
65079;Laerm;52655;52.218;5.964;2023-08-12T06:26:25;46.4;39.1;60.0;;
65079;Laerm;52655;52.218;5.964;2023-08-12T06:29:26;42.5;35.3;56.8;;
65079;Laerm;52655;52.218;5.964;2023-08-12T06:32:27;44.2;35.4;57.6;;
65079;Laerm;52655;52.218;5.964;2023-08-12T06:35:28;46.8;34.9;68.7;;
65079;Laerm;52655;52.218;5.964;2023-08-12T06:38:30;43.7;37.5;57.3;;
65079;Laerm;52655;52.218;5.964;2023-08-12T06:41:31;45.1;40.3;58.8;;
65079;Laerm;52655;52.218;5.964;2023-08-12T06:44:32;43.4;35.4;56.8;;
65079;Laerm;52655;52.218;5.964;2023-08-12T06:47:33;44.3;34.5;56.4;;
65079;Laerm;52655;52.218;5.964;2023-08-12T06:50:34;56.4;49.6;61.8;;
65079;Laerm;52655;52.218;5.964;2023-08-12T06:53:35;44.7;38.4;56.8;;
65079;Laerm;52655;52.218;5.964;2023-08-12T06:56:36;44.2;35.6;54.8;;
65079;Laerm;52655;52.218;5.964;2023-08-12T06:59:37;46.5;34.6;57.0;;
65079;Laerm;52655;52.218;5.964;2023-08-12T07:02:38;44.7;34.2;60.8;;
65079;Laerm;52655;52.218;5.964;2023-08-12T07:05:39;38.7;34.5;51.0;;
65079;Laerm;52655;52.218;5.964;2023-08-12T07:08:40;49.4;34.9;60.0;;
65079;Laerm;52655;52.218;5.964;2023-08-12T07:11:41;42.8;33.8;55.8;;
65079;Laerm;52655;52.218;5.964;2023-08-12T07:14:42;45.6;34.9;56.0;;
65079;Laerm;52655;52.218;5.964;2023-08-12T07:17:43;47.3;42.3;57.3;;
65079;Laerm;52655;52.218;5.964;2023-08-12T07:20:44;48.2;43.2;60.0;;
65079;Laerm;52655;52.218;5.964;2023-08-12T07:23:45;45.2;38.6;55.3;;
65079;Laerm;52655;52.218;5.964;2023-08-12T07:26:46;45.7;38.2;57.5;;
65079;Laerm;52655;52.218;5.964;2023-08-12T07:29:47;43.8;37.6;54.1;;
65079;Laerm;52655;52.218;5.964;2023-08-12T07:32:48;44.4;37.3;55.3;;
65079;Laerm;52655;52.218;5.964;2023-08-12T07:35:49;49.3;45.1;57.1;;
65079;Laerm;52655;52.218;5.964;2023-08-12T07:38:50;52.3;46.8;63.4;;
65079;Laerm;52655;52.218;5.964;2023-08-12T07:41:51;50.4;46.4;63.0;;
65079;Laerm;52655;52.218;5.964;2023-08-12T07:44:52;51.2;46.2;64.0;;
65079;Laerm;52655;52.218;5.964;2023-08-12T07:47:54;52.8;46.8;64.9;;
65079;Laerm;52655;52.218;5.964;2023-08-12T07:50:55;46.9;40.9;57.4;;
65079;Laerm;52655;52.218;5.964;2023-08-12T07:53:56;49.7;42.4;64.0;;
65079;Laerm;52655;52.218;5.964;2023-08-12T07:56:57;48.0;43.2;58.0;;
65079;Laerm;52655;52.218;5.964;2023-08-12T07:59:58;50.4;45.3;59.0;;
65079;Laerm;52655;52.218;5.964;2023-08-12T08:02:59;50.7;44.4;58.8;;
65079;Laerm;52655;52.218;5.964;2023-08-12T08:06:00;53.6;48.9;58.9;;
65079;Laerm;52655;52.218;5.964;2023-08-12T08:09:01;53.4;49.9;63.0;;
65079;Laerm;52655;52.218;5.964;2023-08-12T08:12:02;57.5;53.9;62.8;;
65079;Laerm;52655;52.218;5.964;2023-08-12T08:15:03;57.3;54.6;61.5;;
65079;Laerm;52655;52.218;5.964;2023-08-12T08:18:04;58.5;55.1;65.7;;
65079;Laerm;52655;52.218;5.964;2023-08-12T08:21:05;58.5;55.7;63.2;;
65079;Laerm;52655;52.218;5.964;2023-08-12T08:24:06;59.0;55.7;62.7;;
65079;Laerm;52655;52.218;5.964;2023-08-12T08:27:07;56.6;51.6;63.0;;
65079;Laerm;52655;52.218;5.964;2023-08-12T08:30:08;57.4;54.8;65.0;;
65079;Laerm;52655;52.218;5.964;2023-08-12T08:33:09;56.5;54.1;60.0;;
65079;Laerm;52655;52.218;5.964;2023-08-12T08:36:10;54.5;50.7;62.5;;
65079;Laerm;52655;52.218;5.964;2023-08-12T08:39:11;53.8;50.7;60.0;;
65079;Laerm;52655;52.218;5.964;2023-08-12T08:42:12;51.1;46.4;59.8;;
65079;Laerm;52655;52.218;5.964;2023-08-12T08:45:13;51.3;45.6;58.4;;
65079;Laerm;52655;52.218;5.964;2023-08-12T08:48:14;50.2;45.8;59.0;;
65079;Laerm;52655;52.218;5.964;2023-08-12T08:51:20;49.8;45.5;57.8;;
65079;Laerm;52655;52.218;5.964;2023-08-12T08:54:17;48.8;42.8;56.9;;
65079;Laerm;52655;52.218;5.964;2023-08-12T08:57:18;48.7;42.2;61.0;;
65079;Laerm;52655;52.218;5.964;2023-08-12T09:00:19;48.2;41.1;58.4;;
65079;Laerm;52655;52.218;5.964;2023-08-12T09:03:20;48.2;42.6;63.8;;
65079;Laerm;52655;52.218;5.964;2023-08-12T09:06:21;47.2;40.9;59.3;;
65079;Laerm;52655;52.218;5.964;2023-08-12T09:09:22;48.9;39.5;62.6;;
65079;Laerm;52655;52.218;5.964;2023-08-12T09:12:23;46.8;38.4;56.9;;
65079;Laerm;52655;52.218;5.964;2023-08-12T09:15:24;45.7;38.2;55.3;;
65079;Laerm;52655;52.218;5.964;2023-08-12T09:18:25;44.7;37.3;55.4;;
65079;Laerm;52655;52.218;5.964;2023-08-12T09:21:26;45.8;38.4;56.8;;
65079;Laerm;52655;52.218;5.964;2023-08-12T09:24:27;46.2;38.4;59.2;;
65079;Laerm;52655;52.218;5.964;2023-08-12T09:27:29;46.7;38.4;59.0;;
65079;Laerm;52655;52.218;5.964;2023-08-12T09:30:30;47.1;38.1;59.5;;
65079;Laerm;52655;52.218;5.964;2023-08-12T09:33:30;46.6;38.6;58.5;;
65079;Laerm;52655;52.218;5.964;2023-08-12T09:36:31;45.9;38.2;55.8;;
65079;Laerm;52655;52.218;5.964;2023-08-12T09:39:32;46.2;37.9;64.7;;
65079;Laerm;52655;52.218;5.964;2023-08-12T09:42:33;45.7;38.0;55.6;;
65079;Laerm;52655;52.218;5.964;2023-08-12T09:45:34;48.2;38.1;58.2;;
65079;Laerm;52655;52.218;5.964;2023-08-12T09:48:35;45.6;37.9;56.0;;
65079;Laerm;52655;52.218;5.964;2023-08-12T09:51:36;47.2;38.9;57.9;;
65079;Laerm;52655;52.218;5.964;2023-08-12T09:54:37;45.8;37.9;59.0;;
65079;Laerm;52655;52.218;5.964;2023-08-12T09:57:42;46.9;37.0;59.8;;
65079;Laerm;52655;52.218;5.964;2023-08-12T10:00:40;48.0;36.9;60.0;;
65079;Laerm;52655;52.218;5.964;2023-08-12T10:06:42;44.3;36.0;55.5;;
65079;Laerm;52655;52.218;5.964;2023-08-12T10:09:43;45.8;37.5;52.8;;
65079;Laerm;52655;52.218;5.964;2023-08-12T10:12:44;46.3;38.0;54.6;;
65079;Laerm;52655;52.218;5.964;2023-08-12T10:15:45;44.4;35.6;55.6;;
65079;Laerm;52655;52.218;5.964;2023-08-12T10:18:46;44.1;35.0;55.3;;
65079;Laerm;52655;52.218;5.964;2023-08-12T10:21:47;45.9;36.6;55.3;;
65079;Laerm;52655;52.218;5.964;2023-08-12T10:24:48;44.5;35.5;55.9;;
65079;Laerm;52655;52.218;5.964;2023-08-12T10:27:49;44.4;36.8;54.9;;
65079;Laerm;52655;52.218;5.964;2023-08-12T10:30:50;47.9;36.5;61.6;;
65079;Laerm;52655;52.218;5.964;2023-08-12T10:33:51;46.3;38.4;57.8;;
65079;Laerm;52655;52.218;5.964;2023-08-12T10:36:53;46.3;38.2;64.9;;
65079;Laerm;52655;52.218;5.964;2023-08-12T10:39:53;48.3;41.3;70.8;;
65079;Laerm;52655;52.218;5.964;2023-08-12T10:42:54;44.3;38.7;54.0;;
65079;Laerm;52655;52.218;5.964;2023-08-12T10:45:55;46.4;40.3;56.0;;
65079;Laerm;52655;52.218;5.964;2023-08-12T10:48:56;46.1;38.9;54.4;;
65079;Laerm;52655;52.218;5.964;2023-08-12T10:51:57;44.0;35.8;58.8;;
65079;Laerm;52655;52.218;5.964;2023-08-12T10:55:15;46.9;39.3;58.2;;
65079;Laerm;52655;52.218;5.964;2023-08-12T10:57:59;45.6;38.0;55.4;;
65079;Laerm;52655;52.218;5.964;2023-08-12T11:01:01;43.9;36.6;59.7;;
65079;Laerm;52655;52.218;5.964;2023-08-12T11:04:16;43.3;35.3;54.6;;
65079;Laerm;52655;52.218;5.964;2023-08-12T11:07:13;43.5;35.2;52.8;;
65079;Laerm;52655;52.218;5.964;2023-08-12T11:10:04;48.2;36.1;63.0;;
65079;Laerm;52655;52.218;5.964;2023-08-12T11:13:05;42.7;36.9;51.4;;
65079;Laerm;52655;52.218;5.964;2023-08-12T11:16:12;44.7;34.9;60.7;;
65079;Laerm;52655;52.218;5.964;2023-08-12T11:19:07;46.9;35.7;61.7;;
65079;Laerm;52655;52.218;5.964;2023-08-12T11:22:08;43.9;34.8;52.3;;
65079;Laerm;52655;52.218;5.964;2023-08-12T11:25:09;42.1;35.8;52.5;;
65079;Laerm;52655;52.218;5.964;2023-08-12T11:28:10;45.0;37.2;55.7;;
65079;Laerm;52655;52.218;5.964;2023-08-12T11:31:11;41.6;35.3;55.8;;
65079;Laerm;52655;52.218;5.964;2023-08-12T11:34:12;43.5;36.1;52.4;;
65079;Laerm;52655;52.218;5.964;2023-08-12T11:37:13;43.0;35.7;51.0;;
65079;Laerm;52655;52.218;5.964;2023-08-12T11:40:15;46.1;38.6;52.5;;
65079;Laerm;52655;52.218;5.964;2023-08-12T11:43:15;44.2;35.8;53.6;;
65079;Laerm;52655;52.218;5.964;2023-08-12T11:46:16;45.0;38.6;54.9;;
65079;Laerm;52655;52.218;5.964;2023-08-12T11:49:17;44.1;36.5;54.7;;
65079;Laerm;52655;52.218;5.964;2023-08-12T11:52:18;45.6;37.0;53.3;;
65079;Laerm;52655;52.218;5.964;2023-08-12T11:55:19;42.1;36.4;52.9;;
65079;Laerm;52655;52.218;5.964;2023-08-12T11:58:20;44.4;37.5;58.1;;
65079;Laerm;52655;52.218;5.964;2023-08-12T12:01:21;49.2;40.2;61.7;;
65079;Laerm;52655;52.218;5.964;2023-08-12T12:04:23;43.5;38.0;54.6;;
65079;Laerm;52655;52.218;5.964;2023-08-12T12:10:26;45.2;36.4;67.5;;
65079;Laerm;52655;52.218;5.964;2023-08-12T12:13:26;45.4;37.2;61.7;;
65079;Laerm;52655;52.218;5.964;2023-08-12T12:16:35;44.3;35.4;52.6;;
65079;Laerm;52655;52.218;5.964;2023-08-12T12:19:28;44.3;36.0;54.9;;
65079;Laerm;52655;52.218;5.964;2023-08-12T12:22:29;43.5;37.8;53.6;;
65079;Laerm;52655;52.218;5.964;2023-08-12T12:25:30;44.7;35.6;54.8;;
65079;Laerm;52655;52.218;5.964;2023-08-12T12:28:31;57.7;39.6;73.4;;
65079;Laerm;52655;52.218;5.964;2023-08-12T12:31:32;48.6;37.0;59.0;;
65079;Laerm;52655;52.218;5.964;2023-08-12T12:34:33;44.1;35.9;58.4;;
65079;Laerm;52655;52.218;5.964;2023-08-12T12:37:34;46.3;37.8;57.5;;
65079;Laerm;52655;52.218;5.964;2023-08-12T12:40:35;44.0;37.6;53.6;;
65079;Laerm;52655;52.218;5.964;2023-08-12T12:43:36;45.6;37.0;55.6;;
65079;Laerm;52655;52.218;5.964;2023-08-12T12:46:37;42.8;34.7;54.5;;
65079;Laerm;52655;52.218;5.964;2023-08-12T12:49:38;47.2;35.8;62.0;;
65079;Laerm;52655;52.218;5.964;2023-08-12T12:52:39;51.6;44.5;69.7;;
65079;Laerm;52655;52.218;5.964;2023-08-12T12:55:40;50.6;38.2;64.4;;
65079;Laerm;52655;52.218;5.964;2023-08-12T12:58:41;51.0;35.5;63.0;;
65079;Laerm;52655;52.218;5.964;2023-08-12T13:01:42;44.2;34.9;58.0;;
65079;Laerm;52655;52.218;5.964;2023-08-12T13:04:43;43.3;35.1;56.9;;
65079;Laerm;52655;52.218;5.964;2023-08-12T13:07:44;44.0;35.6;56.8;;
65079;Laerm;52655;52.218;5.964;2023-08-12T13:10:45;45.7;38.0;53.6;;
65079;Laerm;52655;52.218;5.964;2023-08-12T13:13:46;55.9;39.3;70.7;;
65079;Laerm;52655;52.218;5.964;2023-08-12T13:16:48;47.3;38.9;57.5;;
65079;Laerm;52655;52.218;5.964;2023-08-12T13:19:49;44.9;38.4;56.5;;
65079;Laerm;52655;52.218;5.964;2023-08-12T13:22:50;41.9;35.6;52.8;;
65079;Laerm;52655;52.218;5.964;2023-08-12T13:25:51;42.1;35.1;58.1;;
65079;Laerm;52655;52.218;5.964;2023-08-12T13:28:53;41.4;34.4;49.9;;
65079;Laerm;52655;52.218;5.964;2023-08-12T13:31:53;44.0;34.2;54.6;;
65079;Laerm;52655;52.218;5.964;2023-08-12T13:34:54;42.6;35.1;52.0;;
65079;Laerm;52655;52.218;5.964;2023-08-12T13:37:55;44.7;37.6;60.8;;
65079;Laerm;52655;52.218;5.964;2023-08-12T13:40:56;45.5;37.6;56.0;;
65079;Laerm;52655;52.218;5.964;2023-08-12T13:43:57;43.6;36.3;52.0;;
65079;Laerm;52655;52.218;5.964;2023-08-12T13:46:58;48.1;36.1;61.8;;
65079;Laerm;52655;52.218;5.964;2023-08-12T13:49:59;44.4;36.8;56.5;;
65079;Laerm;52655;52.218;5.964;2023-08-12T13:53:00;47.5;37.6;60.4;;
65079;Laerm;52655;52.218;5.964;2023-08-12T13:56:01;44.7;35.8;53.9;;
65079;Laerm;52655;52.218;5.964;2023-08-12T13:59:02;44.3;36.2;55.1;;
65079;Laerm;52655;52.218;5.964;2023-08-12T14:05:05;53.8;37.1;69.1;;
65079;Laerm;52655;52.218;5.964;2023-08-12T14:11:07;45.6;34.7;58.6;;
65079;Laerm;52655;52.218;5.964;2023-08-12T14:14:07;42.8;34.6;57.9;;
65079;Laerm;52655;52.218;5.964;2023-08-12T14:17:08;46.0;35.7;57.9;;
65079;Laerm;52655;52.218;5.964;2023-08-12T14:20:10;45.9;34.9;59.8;;
65079;Laerm;52655;52.218;5.964;2023-08-12T14:23:11;44.3;36.1;56.9;;
65079;Laerm;52655;52.218;5.964;2023-08-12T14:26:12;44.7;36.9;53.6;;
65079;Laerm;52655;52.218;5.964;2023-08-12T14:29:13;42.2;33.8;52.5;;
65079;Laerm;52655;52.218;5.964;2023-08-12T14:32:14;52.4;36.9;65.3;;
65079;Laerm;52655;52.218;5.964;2023-08-12T14:35:15;40.2;34.5;53.1;;
65079;Laerm;52655;52.218;5.964;2023-08-12T14:38:16;43.7;36.5;54.1;;
65079;Laerm;52655;52.218;5.964;2023-08-12T14:41:17;43.7;35.4;53.9;;
65079;Laerm;52655;52.218;5.964;2023-08-12T14:44:18;41.6;35.8;51.1;;
65079;Laerm;52655;52.218;5.964;2023-08-12T14:47:19;44.7;34.9;56.0;;
65079;Laerm;52655;52.218;5.964;2023-08-12T14:52:15;48.4;38.4;66.8;;
65079;Laerm;52655;52.218;5.964;2023-08-12T14:55:16;44.8;37.3;53.7;;
65079;Laerm;52655;52.218;5.964;2023-08-12T14:58:17;43.3;35.6;54.5;;
65079;Laerm;52655;52.218;5.964;2023-08-12T15:01:19;43.8;35.5;53.7;;
65079;Laerm;52655;52.218;5.964;2023-08-12T15:04:20;49.3;37.7;60.4;;
65079;Laerm;52655;52.218;5.964;2023-08-12T15:07:21;44.0;36.5;54.0;;
65079;Laerm;52655;52.218;5.964;2023-08-12T15:10:22;44.5;37.3;54.5;;
65079;Laerm;52655;52.218;5.964;2023-08-12T15:13:23;46.1;37.0;55.9;;
65079;Laerm;52655;52.218;5.964;2023-08-12T15:16:24;43.7;34.9;55.5;;
65079;Laerm;52655;52.218;5.964;2023-08-12T15:19:25;51.8;38.6;65.0;;
65079;Laerm;52655;52.218;5.964;2023-08-12T15:22:26;45.2;37.9;59.0;;
65079;Laerm;52655;52.218;5.964;2023-08-12T15:25:27;45.8;37.0;57.5;;
65079;Laerm;52655;52.218;5.964;2023-08-12T15:28:28;46.2;38.9;56.2;;
65079;Laerm;52655;52.218;5.964;2023-08-12T15:31:29;41.4;35.8;53.4;;
65079;Laerm;52655;52.218;5.964;2023-08-12T15:34:30;51.1;36.0;68.5;;
65079;Laerm;52655;52.218;5.964;2023-08-12T15:37:31;45.4;38.4;54.3;;
65079;Laerm;52655;52.218;5.964;2023-08-12T15:40:32;44.5;35.4;61.5;;
65079;Laerm;52655;52.218;5.964;2023-08-12T15:43:33;45.7;36.4;60.4;;
65079;Laerm;52655;52.218;5.964;2023-08-12T15:46:34;42.1;34.1;53.5;;
65079;Laerm;52655;52.218;5.964;2023-08-12T15:49:35;41.9;35.9;55.1;;
65079;Laerm;52655;52.218;5.964;2023-08-12T15:52:36;44.1;37.0;55.1;;
65079;Laerm;52655;52.218;5.964;2023-08-12T15:55:37;42.3;34.6;52.5;;
65079;Laerm;52655;52.218;5.964;2023-08-12T15:58:38;45.7;35.0;56.2;;
65079;Laerm;52655;52.218;5.964;2023-08-12T16:01:40;43.7;35.7;58.2;;
65079;Laerm;52655;52.218;5.964;2023-08-12T16:04:41;50.4;38.0;60.4;;
65079;Laerm;52655;52.218;5.964;2023-08-12T16:07:42;51.1;41.2;63.4;;
65079;Laerm;52655;52.218;5.964;2023-08-12T16:10:43;53.8;37.0;66.1;;
65079;Laerm;52655;52.218;5.964;2023-08-12T16:13:44;43.3;35.2;53.6;;
65079;Laerm;52655;52.218;5.964;2023-08-12T16:16:45;42.3;34.5;53.3;;
65079;Laerm;52655;52.218;5.964;2023-08-12T16:19:46;42.9;35.5;53.2;;
65079;Laerm;52655;52.218;5.964;2023-08-12T16:22:47;44.2;34.9;54.5;;
65079;Laerm;52655;52.218;5.964;2023-08-12T16:25:48;45.7;35.2;58.2;;
65079;Laerm;52655;52.218;5.964;2023-08-12T16:28:49;41.6;35.2;53.9;;
65079;Laerm;52655;52.218;5.964;2023-08-12T16:31:50;41.6;35.7;53.7;;
65079;Laerm;52655;52.218;5.964;2023-08-12T16:34:51;44.9;37.6;54.2;;
65079;Laerm;52655;52.218;5.964;2023-08-12T16:37:52;42.3;35.4;56.7;;
65079;Laerm;52655;52.218;5.964;2023-08-12T16:40:53;41.4;33.9;52.1;;
65079;Laerm;52655;52.218;5.964;2023-08-12T16:43:54;48.9;40.5;59.6;;
65079;Laerm;52655;52.218;5.964;2023-08-12T16:46:55;44.1;35.7;57.1;;
65079;Laerm;52655;52.218;5.964;2023-08-12T16:49:56;43.9;34.9;56.8;;
65079;Laerm;52655;52.218;5.964;2023-08-12T16:52:57;51.0;36.1;71.6;;
65079;Laerm;52655;52.218;5.964;2023-08-12T16:55:58;41.9;34.4;55.6;;
65079;Laerm;52655;52.218;5.964;2023-08-12T16:58:59;41.9;34.1;55.5;;
65079;Laerm;52655;52.218;5.964;2023-08-12T17:02:00;42.0;34.0;56.1;;
65079;Laerm;52655;52.218;5.964;2023-08-12T17:05:02;42.7;34.8;53.1;;
65079;Laerm;52655;52.218;5.964;2023-08-12T17:08:02;42.1;35.0;54.4;;
65079;Laerm;52655;52.218;5.964;2023-08-12T17:11:04;44.5;35.2;54.4;;
65079;Laerm;52655;52.218;5.964;2023-08-12T17:14:05;43.8;34.9;55.3;;
65079;Laerm;52655;52.218;5.964;2023-08-12T17:17:06;44.5;37.8;56.6;;
65079;Laerm;52655;52.218;5.964;2023-08-12T17:20:07;43.2;36.4;54.5;;
65079;Laerm;52655;52.218;5.964;2023-08-12T17:23:08;44.3;36.5;55.7;;
65079;Laerm;52655;52.218;5.964;2023-08-12T17:26:09;43.5;35.3;56.6;;
65079;Laerm;52655;52.218;5.964;2023-08-12T17:29:10;42.8;35.3;53.7;;
65079;Laerm;52655;52.218;5.964;2023-08-12T17:32:11;45.3;33.1;61.3;;
65079;Laerm;52655;52.218;5.964;2023-08-12T17:35:12;46.5;36.5;61.2;;
65079;Laerm;52655;52.218;5.964;2023-08-12T17:38:13;43.2;34.4;64.3;;
65079;Laerm;52655;52.218;5.964;2023-08-12T17:41:14;44.9;35.5;56.5;;
65079;Laerm;52655;52.218;5.964;2023-08-12T17:44:15;43.9;35.5;58.3;;
65079;Laerm;52655;52.218;5.964;2023-08-12T17:47:16;42.8;34.2;55.1;;
65079;Laerm;52655;52.218;5.964;2023-08-12T17:50:17;44.7;35.4;63.1;;
65079;Laerm;52655;52.218;5.964;2023-08-12T17:53:18;49.2;34.4;67.9;;
65079;Laerm;52655;52.218;5.964;2023-08-12T17:56:19;44.9;36.0;56.8;;